Houma, LA (70363)

5:17 AM CDT on June 30, 2015 (GMT -0500)
ASHLAND NORTH | | Change Station
CLOSE
Current Station
Personal Weather Station
Location: Houma, LA
Elevation: 3 ft
Nearby Weather Stations

Elev 3 ft 29.54 °N, 90.67 °W | Updated 17 seconds ago

Fog
Fog
76.6 °F
Feels Like 77 °F
N
3.1
Wind Variable Wind from SW
Gusts 3.1 mph

Today
High -- | Low -- °F
--% Chance of Precip.
Yesterday
High -- | Low -- °F
Precip. -- in
6:05 AM 8:06 PM
Waxing Gibbous, 97% visible
Pressure 30.05 in
Visibility 5.0 miles
Clouds Clear
Heat Index 77 °F
Dew Point 76 °F
Humidity 99%
Rainfall in
Snow Depth Not available.
UV 0 out of 12
Pollen 2.80 out of 12
Air Quality Not available.
Flu Activity Sporadic
METAR KGAO 300955Z AUTO 19004KT 5SM BR CLR 24/23 A3005 RMK AO2 T02440233

More Conditions Fewer Conditions

Pressure 30.05 in
Visibility 5.0 miles
Clouds Clear
Heat Index 77 °F
Dew Point 76 °F
Humidity 99%
Rainfall in
Snow Depth Not available.
UV 0 out of 12
Pollen 2.80 out of 12
Air Quality Not available.
Flu Activity Sporadic
METAR KGAO 300955Z AUTO 19004KT 5SM BR CLR 24/23 A3005 RMK AO2 T02440233

More Conditions Fewer Conditions

10-Day Weather Forecast

×

Almanac

Astronomy

Jun. 30, 2015 Rise Set
Actual Time
Civil Twilight
Nautical Twilight
Astronomical Twilight
Moon
Length of Visible Light
Length of Day
Tomorrow will be .
, % of the Moon is Illuminated

Today's Extremes

State Highs State Lows

Community

WunderPhotos

Upload Photos

1,833,986 photos uploaded!

WunderBlogs® & News

Nearby

Air Quality

  Air Quality AQ Index Pollutant
Not available.

Snow Depth

Station Depth Elevation

Earthquake Activity

City Distance Mag. Time & Date
Minimum magnitude displayed is 2.5.

Coastal Water Temperatures

Place Temperature

Stations

Nearby Weather Stations

Station Location Temp. Windchill Dew Point Humidity Wind Precip. Elev Updated Type